This is the latest recevied weather packets stored in our database for station/object WX2NJ-13. If no packets are shown the sender has not sent any weather packets the latest 10 day(s).
| Time | Temp. | Humidity | Pressure | Rain* | Wind** | Luminosity | Snow |
|---|---|---|---|---|---|---|---|
| 1777576875 | 16.67° C | 77% | 1007.3 hPa | 0 mm | 0 m/s | - | - |
| 1777576577 | 16.67° C | 78% | 1007.4 hPa | 0 mm | 0 m/s | - | - |
| 1777576278 | 17.22° C | 80% | 1007.3 hPa | 0 mm | 0 m/s | - | - |
| 1777575977 | 17.22° C | 81% | 1007.2 hPa | 0 mm | 0 m/s | - | - |
| 1777575678 | 16.67° C | 84% | 1007.3 hPa | 0 mm | 0.89 m/s, 142° | - | - |
| 1777575379 | 16.67° C | 86% | 1007.4 hPa | 0 mm | 0 m/s | - | - |
| 1777575078 | 16.11° C | 87% | 1007.6 hPa | 0 mm | 1.34 m/s, 129° | - | - |
| 1777574779 | 16.11° C | 89% | 1007.7 hPa | 0 mm | 0.45 m/s, 42° | - | - |
| 1777574481 | 15.56° C | 90% | 1007.8 hPa | 0 mm | 0 m/s | - | - |
| 1777574180 | 15° C | 90% | 1007.8 hPa | 0 mm | 1.79 m/s, 342° | - | - |
| 1777573881 | 14.44° C | 91% | 1007.9 hPa | 0 mm | 0.89 m/s, 27° | - | - |
| 1777573582 | 14.44° C | 92% | 1007.8 hPa | 0 mm | 0 m/s | - | - |
| 1777573281 | 13.89° C | 92% | 1008 hPa | 0 mm | 0 m/s | - | - |
| 1777572982 | 13.89° C | 93% | 1008.1 hPa | 0 mm | 0 m/s | - | - |
| 1777572684 | 13.89° C | 93% | 1008.1 hPa | 0 mm | 0 m/s | - | - |
| 1777572383 | 13.33° C | 94% | 1008.1 hPa | 0 mm | 0 m/s | - | - |
| 1777572084 | 13.33° C | 94% | 1008.2 hPa | 0 mm | 0 m/s | - | - |
| 1777571786 | 13.33° C | 94% | 1008.1 hPa | 0 mm | 0 m/s | - | - |
| 1777571484 | 13.33° C | 95% | 1008.1 hPa | 0 mm | 0.89 m/s, 222° | - | - |
| 1777571186 | 13.33° C | 95% | 1008.1 hPa | 0 mm | 0 m/s | - | - |
| 1777570887 | 13.33° C | 95% | 1008.2 hPa | 0 mm | 0 m/s | - | - |
| 1777570586 | 13.33° C | 95% | 1008.2 hPa | 0 mm | 0.45 m/s, 339° | - | - |
| 1777570287 | 13.33° C | 95% | 1008.2 hPa | 0 mm | 0 m/s | - | - |
| 1777569989 | 13.33° C | 96% | 1008.2 hPa | 0 mm | 0 m/s | - | - |
| 1777569687 | 13.33° C | 96% | 1008.1 hPa | 0 mm | 0 m/s | - | - |
* Rain latest hour (hover to see other rain measurements)
** Current wind speed in m/s (hover to see current wind gust speed)